sensor_id;sensor_type;location;lat;lon;timestamp;pressure;altitude;pressure_sealevel;temperature;humidity
50652;BME280;61429;52.086;5.240;2022-08-21T00:01:28;101588.0;;;18.28;68.45
50652;BME280;61429;52.086;5.240;2022-08-21T00:03:08;101590.0;;;18.28;68.41
50652;BME280;61429;52.086;5.240;2022-08-21T00:04:45;101594.0;;;18.34;68.13
50652;BME280;61429;52.086;5.240;2022-08-21T00:08:02;101592.0;;;18.29;68.45
50652;BME280;61429;52.086;5.240;2022-08-21T00:09:40;101594.0;;;18.16;68.87
50652;BME280;61429;52.086;5.240;2022-08-21T00:11:17;101590.0;;;18.16;69.06
50652;BME280;61429;52.086;5.240;2022-08-21T00:14:31;101592.0;;;18.12;68.81
50652;BME280;61429;52.086;5.240;2022-08-21T00:16:09;101593.0;;;18.16;68.52
50652;BME280;61429;52.086;5.240;2022-08-21T00:17:46;101595.0;;;18.31;68.16
50652;BME280;61429;52.086;5.240;2022-08-21T00:19:25;101591.0;;;18.25;68.47
50652;BME280;61429;52.086;5.240;2022-08-21T00:22:40;101590.0;;;18.2;68.41
50652;BME280;61429;52.086;5.240;2022-08-21T00:24:18;101590.0;;;18.12;68.8
50652;BME280;61429;52.086;5.240;2022-08-21T00:25:55;101587.0;;;18.11;68.95
50652;BME280;61429;52.086;5.240;2022-08-21T00:29:07;101590.0;;;18.14;68.64
50652;BME280;61429;52.086;5.240;2022-08-21T00:30:44;101585.0;;;17.95;68.8
50652;BME280;61429;52.086;5.240;2022-08-21T00:32:23;101581.0;;;18.0;68.7
50652;BME280;61429;52.086;5.240;2022-08-21T00:35:39;101580.0;;;18.05;68.55
50652;BME280;61429;52.086;5.240;2022-08-21T00:37:17;101580.0;;;17.98;68.7
50652;BME280;61429;52.086;5.240;2022-08-21T00:38:54;101580.0;;;17.97;68.97
50652;BME280;61429;52.086;5.240;2022-08-21T00:40:35;101577.0;;;18.0;68.63
50652;BME280;61429;52.086;5.240;2022-08-21T00:43:54;101577.0;;;18.02;68.61
50652;BME280;61429;52.086;5.240;2022-08-21T00:45:32;101577.0;;;18.02;68.73
50652;BME280;61429;52.086;5.240;2022-08-21T00:47:09;101580.0;;;17.82;69.08
50652;BME280;61429;52.086;5.240;2022-08-21T00:48:46;101578.0;;;17.88;68.95
50652;BME280;61429;52.086;5.240;2022-08-21T00:52:07;101575.0;;;17.91;69.27
50652;BME280;61429;52.086;5.240;2022-08-21T00:53:46;101577.0;;;17.86;69.11
50652;BME280;61429;52.086;5.240;2022-08-21T00:55:23;101576.0;;;17.91;68.91
50652;BME280;61429;52.086;5.240;2022-08-21T00:58:47;101574.0;;;17.55;70.02
50652;BME280;61429;52.086;5.240;2022-08-21T01:00:29;101574.0;;;17.68;69.63
50652;BME280;61429;52.086;5.240;2022-08-21T01:02:07;101575.0;;;17.54;69.83
50652;BME280;61429;52.086;5.240;2022-08-21T01:03:45;101577.0;;;17.59;69.77
50652;BME280;61429;52.086;5.240;2022-08-21T01:07:01;101583.0;;;17.66;69.58
50652;BME280;61429;52.086;5.240;2022-08-21T01:08:37;101580.0;;;17.46;70.12
50652;BME280;61429;52.086;5.240;2022-08-21T01:10:16;101580.0;;;17.37;70.8
50652;BME280;61429;52.086;5.240;2022-08-21T01:11:53;101583.0;;;17.63;70.0
50652;BME280;61429;52.086;5.240;2022-08-21T01:15:12;101577.0;;;17.37;70.83
50652;BME280;61429;52.086;5.240;2022-08-21T01:16:52;101574.0;;;17.41;70.77
50652;BME280;61429;52.086;5.240;2022-08-21T01:18:30;101573.0;;;17.34;71.11
50652;BME280;61429;52.086;5.240;2022-08-21T01:20:10;101577.0;;;17.45;70.67
50652;BME280;61429;52.086;5.240;2022-08-21T01:23:25;101575.0;;;17.62;70.3
50652;BME280;61429;52.086;5.240;2022-08-21T01:25:03;101577.0;;;17.66;70.02
50652;BME280;61429;52.086;5.240;2022-08-21T01:26:42;101582.0;;;17.66;70.16
50652;BME280;61429;52.086;5.240;2022-08-21T01:30:04;101581.0;;;17.62;70.8
50652;BME280;61429;52.086;5.240;2022-08-21T01:31:45;101580.0;;;17.62;70.91
50652;BME280;61429;52.086;5.240;2022-08-21T01:33:24;101580.0;;;17.61;70.95
50652;BME280;61429;52.086;5.240;2022-08-21T01:35:02;101581.0;;;17.64;70.48
50652;BME280;61429;52.086;5.240;2022-08-21T01:38:16;101580.0;;;17.53;70.34
50652;BME280;61429;52.086;5.240;2022-08-21T01:39:53;101575.0;;;17.55;70.11
50652;BME280;61429;52.086;5.240;2022-08-21T01:41:30;101575.0;;;17.5;70.44
50652;BME280;61429;52.086;5.240;2022-08-21T01:43:07;101573.0;;;17.37;70.5
50652;BME280;61429;52.086;5.240;2022-08-21T01:46:20;101574.0;;;17.45;70.23
50652;BME280;61429;52.086;5.240;2022-08-21T01:47:56;101574.0;;;17.37;70.42
50652;BME280;61429;52.086;5.240;2022-08-21T01:49:33;101572.0;;;17.5;70.19
50652;BME280;61429;52.086;5.240;2022-08-21T01:52:49;101569.0;;;17.36;70.73
50652;BME280;61429;52.086;5.240;2022-08-21T01:54:25;101570.0;;;17.36;70.62
50652;BME280;61429;52.086;5.240;2022-08-21T01:56:03;101571.0;;;17.45;70.45
50652;BME280;61429;52.086;5.240;2022-08-21T01:57:43;101568.0;;;17.38;71.02
50652;BME280;61429;52.086;5.240;2022-08-21T02:00:59;101565.0;;;17.37;70.97
50652;BME280;61429;52.086;5.240;2022-08-21T02:02:35;101563.0;;;17.28;71.48
50652;BME280;61429;52.086;5.240;2022-08-21T02:04:11;101558.0;;;17.25;71.69
50652;BME280;61429;52.086;5.240;2022-08-21T02:07:24;101563.0;;;17.43;71.02
50652;BME280;61429;52.086;5.240;2022-08-21T02:09:02;101557.0;;;17.37;70.89
50652;BME280;61429;52.086;5.240;2022-08-21T02:10:41;101559.0;;;17.39;70.83
50652;BME280;61429;52.086;5.240;2022-08-21T02:13:54;101559.0;;;17.09;71.61
50652;BME280;61429;52.086;5.240;2022-08-21T02:15:31;101562.0;;;17.23;71.47
50652;BME280;61429;52.086;5.240;2022-08-21T02:17:07;101562.0;;;17.34;70.77
50652;BME280;61429;52.086;5.240;2022-08-21T02:18:43;101561.0;;;17.36;70.73
50652;BME280;61429;52.086;5.240;2022-08-21T02:22:03;101561.0;;;17.37;70.63
50652;BME280;61429;52.086;5.240;2022-08-21T02:23:40;101555.0;;;17.46;70.56
50652;BME280;61429;52.086;5.240;2022-08-21T02:25:16;101555.0;;;17.47;70.58
50652;BME280;61429;52.086;5.240;2022-08-21T02:28:30;101548.0;;;17.36;71.08
50652;BME280;61429;52.086;5.240;2022-08-21T02:30:11;101547.0;;;17.16;72.0
50652;BME280;61429;52.086;5.240;2022-08-21T02:31:47;101546.0;;;17.27;71.55
50652;BME280;61429;52.086;5.240;2022-08-21T02:33:25;101547.0;;;17.23;71.7
50652;BME280;61429;52.086;5.240;2022-08-21T02:36:39;101544.0;;;17.21;71.58
50652;BME280;61429;52.086;5.240;2022-08-21T02:38:19;101544.0;;;17.11;72.19
50652;BME280;61429;52.086;5.240;2022-08-21T02:43:13;101538.0;;;17.11;72.22
50652;BME280;61429;52.086;5.240;2022-08-21T02:44:51;101540.0;;;17.05;72.44
50652;BME280;61429;52.086;5.240;2022-08-21T02:46:28;101536.0;;;17.14;72.11
50652;BME280;61429;52.086;5.240;2022-08-21T02:48:06;101535.0;;;17.14;71.98
50652;BME280;61429;52.086;5.240;2022-08-21T02:51:22;101539.0;;;17.06;72.16
50652;BME280;61429;52.086;5.240;2022-08-21T02:52:59;101539.0;;;17.07;72.42
50652;BME280;61429;52.086;5.240;2022-08-21T02:54:37;101541.0;;;17.2;72.02
50652;BME280;61429;52.086;5.240;2022-08-21T02:57:56;101538.0;;;17.07;72.33
50652;BME280;61429;52.086;5.240;2022-08-21T02:59:34;101537.0;;;17.13;72.02
50652;BME280;61429;52.086;5.240;2022-08-21T03:01:11;101532.0;;;17.12;71.77
50652;BME280;61429;52.086;5.240;2022-08-21T03:02:49;101532.0;;;17.16;71.47
50652;BME280;61429;52.086;5.240;2022-08-21T03:06:04;101530.0;;;17.27;71.19
50652;BME280;61429;52.086;5.240;2022-08-21T03:07:42;101526.0;;;17.13;71.55
50652;BME280;61429;52.086;5.240;2022-08-21T03:09:19;101522.0;;;17.09;71.58
50652;BME280;61429;52.086;5.240;2022-08-21T03:10:55;101522.0;;;17.02;72.28
50652;BME280;61429;52.086;5.240;2022-08-21T03:14:09;101524.0;;;16.95;72.75
50652;BME280;61429;52.086;5.240;2022-08-21T03:15:46;101521.0;;;17.0;72.38
50652;BME280;61429;52.086;5.240;2022-08-21T03:17:23;101519.0;;;16.93;72.8
50652;BME280;61429;52.086;5.240;2022-08-21T03:20:40;101511.0;;;16.87;73.02
50652;BME280;61429;52.086;5.240;2022-08-21T03:22:17;101515.0;;;16.86;72.88
50652;BME280;61429;52.086;5.240;2022-08-21T03:23:54;101516.0;;;16.86;73.14
50652;BME280;61429;52.086;5.240;2022-08-21T03:27:12;101521.0;;;16.77;73.67
50652;BME280;61429;52.086;5.240;2022-08-21T03:28:50;101519.0;;;16.88;73.27
50652;BME280;61429;52.086;5.240;2022-08-21T03:30:27;101516.0;;;16.81;72.94
50652;BME280;61429;52.086;5.240;2022-08-21T03:32:05;101513.0;;;16.75;72.92
50652;BME280;61429;52.086;5.240;2022-08-21T03:35:18;101514.0;;;16.72;72.66
50652;BME280;61429;52.086;5.240;2022-08-21T03:36:56;101516.0;;;16.52;73.3
50652;BME280;61429;52.086;5.240;2022-08-21T03:38:34;101517.0;;;16.39;73.81
50652;BME280;61429;52.086;5.240;2022-08-21T03:41:53;101515.0;;;16.47;73.83
50652;BME280;61429;52.086;5.240;2022-08-21T03:43:30;101517.0;;;16.62;73.08
50652;BME280;61429;52.086;5.240;2022-08-21T03:45:08;101516.0;;;16.64;72.95
50652;BME280;61429;52.086;5.240;2022-08-21T03:46:46;101518.0;;;16.43;73.53
50652;BME280;61429;52.086;5.240;2022-08-21T03:49:59;101513.0;;;16.48;73.55
50652;BME280;61429;52.086;5.240;2022-08-21T03:51:37;101513.0;;;16.52;73.27
50652;BME280;61429;52.086;5.240;2022-08-21T03:53:14;101513.0;;;16.48;73.56
50652;BME280;61429;52.086;5.240;2022-08-21T03:54:52;101510.0;;;16.52;73.22
50652;BME280;61429;52.086;5.240;2022-08-21T03:58:06;101511.0;;;16.4;73.66
50652;BME280;61429;52.086;5.240;2022-08-21T03:59:43;101513.0;;;16.54;72.98
50652;BME280;61429;52.086;5.240;2022-08-21T04:01:20;101508.0;;;16.16;74.37
50652;BME280;61429;52.086;5.240;2022-08-21T04:04:33;101510.0;;;16.13;74.31
50652;BME280;61429;52.086;5.240;2022-08-21T04:06:11;101508.0;;;16.23;73.83
50652;BME280;61429;52.086;5.240;2022-08-21T04:07:47;101506.0;;;16.37;73.16
50652;BME280;61429;52.086;5.240;2022-08-21T04:11:02;101506.0;;;16.34;72.91
50652;BME280;61429;52.086;5.240;2022-08-21T04:12:39;101508.0;;;16.46;72.44
50652;BME280;61429;52.086;5.240;2022-08-21T04:14:15;101511.0;;;16.43;72.39
50652;BME280;61429;52.086;5.240;2022-08-21T04:15:54;101510.0;;;16.34;72.61
50652;BME280;61429;52.086;5.240;2022-08-21T04:19:07;101511.0;;;16.31;72.86
50652;BME280;61429;52.086;5.240;2022-08-21T04:20:46;101514.0;;;16.27;73.37
50652;BME280;61429;52.086;5.240;2022-08-21T04:22:24;101509.0;;;16.37;72.91
50652;BME280;61429;52.086;5.240;2022-08-21T04:25:36;101513.0;;;16.14;73.86
50652;BME280;61429;52.086;5.240;2022-08-21T04:27:13;101514.0;;;16.22;73.67
50652;BME280;61429;52.086;5.240;2022-08-21T04:28:50;101516.0;;;16.2;74.0
50652;BME280;61429;52.086;5.240;2022-08-21T04:30:26;101514.0;;;15.94;74.77
50652;BME280;61429;52.086;5.240;2022-08-21T04:33:40;101510.0;;;16.22;74.25
50652;BME280;61429;52.086;5.240;2022-08-21T04:35:18;101513.0;;;15.93;75.2
50652;BME280;61429;52.086;5.240;2022-08-21T04:36:56;101514.0;;;16.05;75.13
50652;BME280;61429;52.086;5.240;2022-08-21T04:40:11;101517.0;;;16.04;75.44
50652;BME280;61429;52.086;5.240;2022-08-21T04:41:49;101520.0;;;16.15;75.02
50652;BME280;61429;52.086;5.240;2022-08-21T04:43:25;101520.0;;;16.13;75.0
50652;BME280;61429;52.086;5.240;2022-08-21T04:46:38;101521.0;;;16.22;74.88
50652;BME280;61429;52.086;5.240;2022-08-21T04:48:17;101523.0;;;16.29;74.94
50652;BME280;61429;52.086;5.240;2022-08-21T04:49:56;101523.0;;;16.31;75.16
50652;BME280;61429;52.086;5.240;2022-08-21T04:51:34;101524.0;;;16.28;75.44
50652;BME280;61429;52.086;5.240;2022-08-21T04:54:54;101524.0;;;16.36;75.16
50652;BME280;61429;52.086;5.240;2022-08-21T04:56:34;101522.0;;;16.31;75.44
50652;BME280;61429;52.086;5.240;2022-08-21T04:58:19;101530.0;;;16.36;75.37
50652;BME280;61429;52.086;5.240;2022-08-21T04:59:57;101532.0;;;16.3;75.38
50652;BME280;61429;52.086;5.240;2022-08-21T05:03:16;101531.0;;;16.39;75.2
50652;BME280;61429;52.086;5.240;2022-08-21T05:04:54;101535.0;;;16.4;75.22
50652;BME280;61429;52.086;5.240;2022-08-21T05:06:34;101537.0;;;16.43;75.13
50652;BME280;61429;52.086;5.240;2022-08-21T05:08:16;101539.0;;;16.43;75.17
50652;BME280;61429;52.086;5.240;2022-08-21T05:11:32;101542.0;;;16.41;75.31
50652;BME280;61429;52.086;5.240;2022-08-21T05:13:10;101542.0;;;16.5;75.14
50652;BME280;61429;52.086;5.240;2022-08-21T05:14:48;101546.0;;;16.66;74.58
50652;BME280;61429;52.086;5.240;2022-08-21T05:18:04;101545.0;;;16.56;74.91
50652;BME280;61429;52.086;5.240;2022-08-21T05:19:41;101544.0;;;16.55;74.88
50652;BME280;61429;52.086;5.240;2022-08-21T05:21:17;101544.0;;;16.68;74.44
50652;BME280;61429;52.086;5.240;2022-08-21T05:22:53;101546.0;;;16.65;74.63
50652;BME280;61429;52.086;5.240;2022-08-21T05:26:07;101548.0;;;16.65;74.89
50652;BME280;61429;52.086;5.240;2022-08-21T05:27:43;101546.0;;;16.72;74.64
50652;BME280;61429;52.086;5.240;2022-08-21T05:29:20;101550.0;;;16.7;74.81
50652;BME280;61429;52.086;5.240;2022-08-21T05:32:35;101545.0;;;16.77;74.64
50652;BME280;61429;52.086;5.240;2022-08-21T05:34:12;101547.0;;;16.78;74.63
50652;BME280;61429;52.086;5.240;2022-08-21T05:35:49;101548.0;;;16.86;74.56
50652;BME280;61429;52.086;5.240;2022-08-21T05:37:27;101551.0;;;16.88;74.5
50652;BME280;61429;52.086;5.240;2022-08-21T05:40:41;101551.0;;;16.81;74.86
50652;BME280;61429;52.086;5.240;2022-08-21T05:42:17;101551.0;;;16.95;74.5
50652;BME280;61429;52.086;5.240;2022-08-21T05:43:53;101553.0;;;16.95;74.41
50652;BME280;61429;52.086;5.240;2022-08-21T05:47:10;101550.0;;;16.97;74.38
50652;BME280;61429;52.086;5.240;2022-08-21T05:48:47;101553.0;;;16.98;74.39
50652;BME280;61429;52.086;5.240;2022-08-21T05:50:23;101555.0;;;17.02;74.47
50652;BME280;61429;52.086;5.240;2022-08-21T05:52:00;101551.0;;;17.09;74.28
50652;BME280;61429;52.086;5.240;2022-08-21T05:55:15;101551.0;;;17.12;74.13
50652;BME280;61429;52.086;5.240;2022-08-21T05:56:52;101549.0;;;17.11;74.33
50652;BME280;61429;52.086;5.240;2022-08-21T05:58:28;101547.0;;;17.16;74.23
50652;BME280;61429;52.086;5.240;2022-08-21T06:01:41;101551.0;;;17.27;73.95
50652;BME280;61429;52.086;5.240;2022-08-21T06:03:20;101551.0;;;17.23;74.22
50652;BME280;61429;52.086;5.240;2022-08-21T06:05:00;101547.0;;;17.28;74.22
50652;BME280;61429;52.086;5.240;2022-08-21T06:08:14;101551.0;;;17.16;74.7
50652;BME280;61429;52.086;5.240;2022-08-21T06:09:51;101552.0;;;17.36;74.27
50652;BME280;61429;52.086;5.240;2022-08-21T06:11:27;101548.0;;;17.46;73.92
50652;BME280;61429;52.086;5.240;2022-08-21T06:13:04;101546.0;;;17.36;74.44
50652;BME280;61429;52.086;5.240;2022-08-21T06:16:19;101543.0;;;17.5;74.33
50652;BME280;61429;52.086;5.240;2022-08-21T06:17:55;101541.0;;;17.54;74.27
50652;BME280;61429;52.086;5.240;2022-08-21T06:19:32;101543.0;;;17.61;74.27
50652;BME280;61429;52.086;5.240;2022-08-21T06:22:46;101543.0;;;17.66;74.22
50652;BME280;61429;52.086;5.240;2022-08-21T06:24:23;101543.0;;;17.75;74.12
50652;BME280;61429;52.086;5.240;2022-08-21T06:26:00;101544.0;;;17.78;74.19
50652;BME280;61429;52.086;5.240;2022-08-21T06:27:37;101546.0;;;17.88;74.05
50652;BME280;61429;52.086;5.240;2022-08-21T06:30:54;101546.0;;;17.98;73.91
50652;BME280;61429;52.086;5.240;2022-08-21T06:32:31;101546.0;;;18.09;73.67
50652;BME280;61429;52.086;5.240;2022-08-21T06:34:08;101547.0;;;18.11;73.74
50652;BME280;61429;52.086;5.240;2022-08-21T06:37:22;101545.0;;;18.13;73.91
50652;BME280;61429;52.086;5.240;2022-08-21T06:38:58;101549.0;;;18.25;73.74
50652;BME280;61429;52.086;5.240;2022-08-21T06:40:34;101546.0;;;18.28;73.61
50652;BME280;61429;52.086;5.240;2022-08-21T06:43:51;101548.0;;;18.34;73.58
50652;BME280;61429;52.086;5.240;2022-08-21T06:45:28;101544.0;;;18.34;73.83
50652;BME280;61429;52.086;5.240;2022-08-21T06:47:04;101545.0;;;18.41;73.62
50652;BME280;61429;52.086;5.240;2022-08-21T06:48:41;101540.0;;;18.39;73.89
50652;BME280;61429;52.086;5.240;2022-08-21T06:51:54;101538.0;;;18.43;73.88
50652;BME280;61429;52.086;5.240;2022-08-21T06:53:32;101541.0;;;18.45;74.33
50652;BME280;61429;52.086;5.240;2022-08-21T06:55:10;101537.0;;;18.64;73.66
50652;BME280;61429;52.086;5.240;2022-08-21T06:58:26;101539.0;;;18.68;73.61
50652;BME280;61429;52.086;5.240;2022-08-21T07:01:44;101543.0;;;18.91;73.16
50652;BME280;61429;52.086;5.240;2022-08-21T07:03:23;101542.0;;;18.95;73.02
50652;BME280;61429;52.086;5.240;2022-08-21T07:06:38;101543.0;;;19.05;72.77
50652;BME280;61429;52.086;5.240;2022-08-21T07:08:15;101542.0;;;19.09;72.75
50652;BME280;61429;52.086;5.240;2022-08-21T07:09:52;101544.0;;;19.11;72.86
50652;BME280;61429;52.086;5.240;2022-08-21T07:13:05;101536.0;;;19.16;72.75
50652;BME280;61429;52.086;5.240;2022-08-21T07:14:42;101534.0;;;19.22;72.83
50652;BME280;61429;52.086;5.240;2022-08-21T07:16:19;101532.0;;;19.16;73.28
50652;BME280;61429;52.086;5.240;2022-08-21T07:17:57;101531.0;;;19.45;72.47
50652;BME280;61429;52.086;5.240;2022-08-21T07:21:10;101531.0;;;19.5;72.09
50652;BME280;61429;52.086;5.240;2022-08-21T07:22:47;101532.0;;;19.53;72.38
50652;BME280;61429;52.086;5.240;2022-08-21T07:24:23;101534.0;;;19.47;72.62
50652;BME280;61429;52.086;5.240;2022-08-21T07:27:37;101535.0;;;19.66;72.17
50652;BME280;61429;52.086;5.240;2022-08-21T07:29:13;101532.0;;;19.77;71.92
50652;BME280;61429;52.086;5.240;2022-08-21T07:30:51;101534.0;;;19.81;71.94
50652;BME280;61429;52.086;5.240;2022-08-21T07:32:29;101533.0;;;19.73;72.34
50652;BME280;61429;52.086;5.240;2022-08-21T07:35:45;101536.0;;;19.87;71.94
50652;BME280;61429;52.086;5.240;2022-08-21T07:37:21;101536.0;;;19.93;71.63
50652;BME280;61429;52.086;5.240;2022-08-21T07:38:58;101539.0;;;20.0;71.8
50652;BME280;61429;52.086;5.240;2022-08-21T07:42:11;101541.0;;;20.07;71.44
50652;BME280;61429;52.086;5.240;2022-08-21T07:43:48;101545.0;;;20.11;71.41
50652;BME280;61429;52.086;5.240;2022-08-21T07:45:25;101547.0;;;20.23;70.98
50652;BME280;61429;52.086;5.240;2022-08-21T07:47:03;101545.0;;;20.18;70.99
50652;BME280;61429;52.086;5.240;2022-08-21T07:50:18;101543.0;;;20.31;70.62
50652;BME280;61429;52.086;5.240;2022-08-21T07:51:55;101544.0;;;20.32;70.8
50652;BME280;61429;52.086;5.240;2022-08-21T07:53:31;101545.0;;;20.3;70.87
50652;BME280;61429;52.086;5.240;2022-08-21T07:56:47;101550.0;;;20.38;70.52
50652;BME280;61429;52.086;5.240;2022-08-21T07:58:23;101548.0;;;20.47;70.44
50652;BME280;61429;52.086;5.240;2022-08-21T08:00:00;101542.0;;;20.47;70.27
50652;BME280;61429;52.086;5.240;2022-08-21T08:03:13;101541.0;;;20.52;70.25
50652;BME280;61429;52.086;5.240;2022-08-21T08:04:50;101543.0;;;20.41;70.69
50652;BME280;61429;52.086;5.240;2022-08-21T08:06:27;101539.0;;;20.59;70.14
50652;BME280;61429;52.086;5.240;2022-08-21T08:08:04;101537.0;;;20.67;70.23
50652;BME280;61429;52.086;5.240;2022-08-21T08:11:17;101535.0;;;20.76;69.92
50652;BME280;61429;52.086;5.240;2022-08-21T08:12:55;101530.0;;;20.8;69.86
50652;BME280;61429;52.086;5.240;2022-08-21T08:14:32;101531.0;;;20.86;69.13
50652;BME280;61429;52.086;5.240;2022-08-21T08:17:47;101532.0;;;20.78;69.52
50652;BME280;61429;52.086;5.240;2022-08-21T08:19:24;101531.0;;;20.86;69.62
50652;BME280;61429;52.086;5.240;2022-08-21T08:21:01;101530.0;;;20.95;69.62
50652;BME280;61429;52.086;5.240;2022-08-21T08:22:39;101534.0;;;21.03;68.94
50652;BME280;61429;52.086;5.240;2022-08-21T08:25:53;101532.0;;;21.08;68.97
50652;BME280;61429;52.086;5.240;2022-08-21T08:27:30;101540.0;;;21.25;68.55
50652;BME280;61429;52.086;5.240;2022-08-21T08:29:08;101534.0;;;21.3;67.98
50652;BME280;61429;52.086;5.240;2022-08-21T08:32:22;101533.0;;;21.31;67.66
50652;BME280;61429;52.086;5.240;2022-08-21T08:33:59;101531.0;;;21.35;67.89
50652;BME280;61429;52.086;5.240;2022-08-21T08:35:36;101531.0;;;21.43;67.88
50652;BME280;61429;52.086;5.240;2022-08-21T08:38:49;101530.0;;;21.52;67.58
50652;BME280;61429;52.086;5.240;2022-08-21T08:40:32;101536.0;;;21.42;67.66
50652;BME280;61429;52.086;5.240;2022-08-21T08:42:24;101535.0;;;21.64;67.06
50652;BME280;61429;52.086;5.240;2022-08-21T08:44:07;101537.0;;;21.64;66.78
50652;BME280;61429;52.086;5.240;2022-08-21T08:45:49;101534.0;;;21.46;67.63
50652;BME280;61429;52.086;5.240;2022-08-21T08:49:09;101535.0;;;21.72;67.02
50652;BME280;61429;52.086;5.240;2022-08-21T08:50:53;101532.0;;;21.81;67.05
50652;BME280;61429;52.086;5.240;2022-08-21T08:52:35;101526.0;;;21.93;66.31
50652;BME280;61429;52.086;5.240;2022-08-21T08:54:17;101525.0;;;21.99;65.63
50652;BME280;61429;52.086;5.240;2022-08-21T08:57:37;101523.0;;;21.98;65.62
50652;BME280;61429;52.086;5.240;2022-08-21T08:59:19;101521.0;;;21.75;66.14
50652;BME280;61429;52.086;5.240;2022-08-21T09:01:09;101519.0;;;21.86;66.05
50652;BME280;61429;52.086;5.240;2022-08-21T09:02:54;101520.0;;;21.96;65.77
50652;BME280;61429;52.086;5.240;2022-08-21T09:04:31;101515.0;;;21.84;65.22
50652;BME280;61429;52.086;5.240;2022-08-21T09:08:20;101516.0;;;21.89;64.56
50652;BME280;61429;52.086;5.240;2022-08-21T09:10:14;101521.0;;;21.81;64.97
50652;BME280;61429;52.086;5.240;2022-08-21T09:12:00;101519.0;;;21.75;65.83
50652;BME280;61429;52.086;5.240;2022-08-21T09:13:47;101521.0;;;21.77;65.64
50652;BME280;61429;52.086;5.240;2022-08-21T09:15:32;101520.0;;;21.84;65.42
50652;BME280;61429;52.086;5.240;2022-08-21T09:17:20;101516.0;;;21.85;65.11
50652;BME280;61429;52.086;5.240;2022-08-21T09:19:26;101521.0;;;21.85;65.3
50652;BME280;61429;52.086;5.240;2022-08-21T09:21:18;101514.0;;;21.85;65.19
50652;BME280;61429;52.086;5.240;2022-08-21T09:25:03;101516.0;;;21.96;64.72
50652;BME280;61429;52.086;5.240;2022-08-21T09:26:54;101516.0;;;22.15;64.11
50652;BME280;61429;52.086;5.240;2022-08-21T09:28:34;101518.0;;;22.25;63.52
50652;BME280;61429;52.086;5.240;2022-08-21T09:30:13;101516.0;;;22.29;63.63
50652;BME280;61429;52.086;5.240;2022-08-21T09:31:49;101513.0;;;22.41;63.54
50652;BME280;61429;52.086;5.240;2022-08-21T09:35:09;101517.0;;;22.37;63.16
50652;BME280;61429;52.086;5.240;2022-08-21T09:36:49;101516.0;;;22.49;62.82
50652;BME280;61429;52.086;5.240;2022-08-21T09:38:29;101514.0;;;22.64;62.49
50652;BME280;61429;52.086;5.240;2022-08-21T09:40:26;101516.0;;;22.61;62.55
50652;BME280;61429;52.086;5.240;2022-08-21T09:43:52;101513.0;;;22.83;61.96
50652;BME280;61429;52.086;5.240;2022-08-21T09:45:31;101520.0;;;22.9;61.22
50652;BME280;61429;52.086;5.240;2022-08-21T09:47:09;101517.0;;;23.0;60.23
50652;BME280;61429;52.086;5.240;2022-08-21T09:48:48;101517.0;;;22.95;59.9
50652;BME280;61429;52.086;5.240;2022-08-21T09:52:16;101515.0;;;23.03;59.68
50652;BME280;61429;52.086;5.240;2022-08-21T09:54:00;101509.0;;;23.3;59.18
50652;BME280;61429;52.086;5.240;2022-08-21T09:58:48;101507.0;;;23.53;59.23
50652;BME280;61429;52.086;5.240;2022-08-21T10:00:28;101510.0;;;23.59;58.93
50652;BME280;61429;52.086;5.240;2022-08-21T10:02:22;101511.0;;;23.63;57.8
50652;BME280;61429;52.086;5.240;2022-08-21T10:04:04;101508.0;;;23.69;57.64
50652;BME280;61429;52.086;5.240;2022-08-21T10:05:53;101507.0;;;23.74;57.32
50652;BME280;61429;52.086;5.240;2022-08-21T10:07:32;101502.0;;;23.98;56.89
50652;BME280;61429;52.086;5.240;2022-08-21T10:10:56;101500.0;;;24.2;56.71
50652;BME280;61429;52.086;5.240;2022-08-21T10:12:47;101498.0;;;24.25;56.2
50652;BME280;61429;52.086;5.240;2022-08-21T10:14:39;101495.0;;;24.21;55.8
50652;BME280;61429;52.086;5.240;2022-08-21T10:16:40;101497.0;;;24.25;56.11
50652;BME280;61429;52.086;5.240;2022-08-21T10:18:35;101498.0;;;24.34;55.69
50652;BME280;61429;52.086;5.240;2022-08-21T10:20:20;101498.0;;;24.3;55.93
50652;BME280;61429;52.086;5.240;2022-08-21T10:22:06;101500.0;;;24.35;55.78
50652;BME280;61429;52.086;5.240;2022-08-21T10:25:40;101494.0;;;24.24;54.02
50652;BME280;61429;52.086;5.240;2022-08-21T10:27:33;101492.0;;;24.24;53.64
50652;BME280;61429;52.086;5.240;2022-08-21T10:29:28;101494.0;;;24.24;54.04
50652;BME280;61429;52.086;5.240;2022-08-21T10:31:23;101490.0;;;24.39;53.35
50652;BME280;61429;52.086;5.240;2022-08-21T10:33:16;101488.0;;;24.46;53.14
50652;BME280;61429;52.086;5.240;2022-08-21T10:35:04;101491.0;;;24.38;53.38
50652;BME280;61429;52.086;5.240;2022-08-21T10:36:52;101486.0;;;24.41;53.34
50652;BME280;61429;52.086;5.240;2022-08-21T10:38:56;101485.0;;;24.27;52.36
50652;BME280;61429;52.086;5.240;2022-08-21T10:42:31;101483.0;;;24.3;51.7
50652;BME280;61429;52.086;5.240;2022-08-21T10:44:19;101482.0;;;24.42;51.35
50652;BME280;61429;52.086;5.240;2022-08-21T10:46:03;101475.0;;;24.35;50.98
50652;BME280;61429;52.086;5.240;2022-08-21T10:47:57;101471.0;;;24.52;51.27
50652;BME280;61429;52.086;5.240;2022-08-21T10:49:42;101471.0;;;24.64;51.28
50652;BME280;61429;52.086;5.240;2022-08-21T10:51:28;101474.0;;;24.66;50.95
50652;BME280;61429;52.086;5.240;2022-08-21T10:55:08;101470.0;;;24.73;51.03
50652;BME280;61429;52.086;5.240;2022-08-21T10:56:51;101470.0;;;24.85;50.96
50652;BME280;61429;52.086;5.240;2022-08-21T10:58:37;101465.0;;;24.96;50.73
50652;BME280;61429;52.086;5.240;2022-08-21T11:00:19;101462.0;;;25.06;50.49
50652;BME280;61429;52.086;5.240;2022-08-21T11:02:01;101463.0;;;24.97;49.99
50652;BME280;61429;52.086;5.240;2022-08-21T11:03:46;101465.0;;;24.94;49.29
50652;BME280;61429;52.086;5.240;2022-08-21T11:07:17;101457.0;;;25.08;49.28
50652;BME280;61429;52.086;5.240;2022-08-21T11:09:08;101464.0;;;25.03;48.59
50652;BME280;61429;52.086;5.240;2022-08-21T11:10:49;101465.0;;;25.07;48.09
50652;BME280;61429;52.086;5.240;2022-08-21T11:12:34;101457.0;;;25.02;47.25